Wetterstation Vordersexau
Wetterdaten: Woche 06.05.13 - 12.05.13 (KW19)
Datum Zeit Temp. A. Feuchte A. Luftdruck Regen Wind Richtung Taupunkt Windchill Windben
06.05.2013 00:00 10,5 C 80 % 1017,3 hPa 0,0 l/m 3,2 km/h S-SW 7,2 C 10,5 C 1,8 km/h
06.05.2013 01:00 9,8 C 82 % 1017,1 hPa 0,0 l/m 11,0 km/h S-SW 6,9 C 6,8 C 6,1 km/h
06.05.2013 02:00 8,9 C 83 % 1016,5 hPa 0,0 l/m 0,0 km/h S-SW 6,2 C 8,9 C 0,0 km/h
06.05.2013 03:00 7,9 C 84 % 1016,2 hPa 0,0 l/m 0,0 km/h O-SO 5,4 C 7,9 C 0,0 km/h
06.05.2013 04:00 7,8 C 83 % 1015,9 hPa 0,0 l/m 0,0 km/h SO 5,1 C 7,8 C 0,0 km/h
06.05.2013 05:00 7,9 C 82 % 1015,8 hPa 0,0 l/m 0,0 km/h NO 5,0 C 7,9 C 0,0 km/h
06.05.2013 06:00 8,4 C 82 % 1015,7 hPa 0,0 l/m 0,0 km/h NO 5,5 C 8,4 C 0,0 km/h
06.05.2013 07:00 9,6 C 81 % 1015,9 hPa 0,0 l/m 0,0 km/h NO 6,5 C 9,6 C 0,0 km/h
06.05.2013 08:00 16,4 C 74 % 1015,8 hPa 0,0 l/m 0,0 km/h N 11,8 C 16,4 C 0,0 km/h
06.05.2013 09:00 20,9 C 61 % 1015,7 hPa 0,0 l/m 1,9 km/h N-NW 13,1 C 20,9 C 1,1 km/h
06.05.2013 10:00 23,4 C 56 % 1015,2 hPa 0,0 l/m 13,6 km/h O-SO 14,1 C 21,6 C 7,6 km/h
06.05.2013 11:00 24,5 C 52 % 1014,7 hPa 0,0 l/m 0,0 km/h N-NO 14,0 C 24,5 C 0,0 km/h
06.05.2013 12:00 22,8 C 57 % 1014,5 hPa 0,0 l/m 20,7 km/h N 13,8 C 19,7 C 11,5 km/h
06.05.2013 13:00 23,7 C 54 % 1014,0 hPa 0,0 l/m 21,4 km/h NO 13,8 C 20,8 C 11,9 km/h
06.05.2013 14:00 22,8 C 53 % 1013,9 hPa 0,0 l/m 5,8 km/h N-NO 12,7 C 22,8 C 3,2 km/h
06.05.2013 15:00 21,5 C 56 % 1013,6 hPa 0,0 l/m 0,0 km/h O-SO 12,3 C 21,5 C 0,0 km/h
06.05.2013 16:00 21,1 C 66 % 1013,3 hPa 0,0 l/m 0,0 km/h S 14,5 C 21,1 C 0,0 km/h
06.05.2013 17:00 18,8 C 69 % 1013,5 hPa 0,0 l/m 2,6 km/h S-SW 13,0 C 18,8 C 1,4 km/h
06.05.2013 18:00 15,2 C 82 % 1014,1 hPa 1,6 l/m 7,8 km/h O-SO 12,1 C 14,4 C 4,3 km/h
06.05.2013 19:00 14,1 C 82 % 1013,7 hPa 1,0 l/m 0,0 km/h N-NO 11,1 C 14,1 C 0,0 km/h
06.05.2013 20:00 13,5 C 83 % 1014,4 hPa 0,0 l/m 0,0 km/h SO 10,7 C 13,5 C 0,0 km/h
06.05.2013 21:00 13,4 C 83 % 1015,0 hPa 0,0 l/m 0,0 km/h S-SW 10,6 C 13,4 C 0,0 km/h
06.05.2013 22:00 12,8 C 83 % 1015,4 hPa 0,0 l/m 0,0 km/h SW 10,0 C 12,8 C 0,0 km/h
06.05.2013 23:00 12,8 C 81 % 1015,4 hPa 0,0 l/m 0,0 km/h SW 9,6 C 12,8 C 0,0 km/h
07.05.2013 00:00 12,1 C 81 % 1015,1 hPa 0,0 l/m 0,0 km/h S-SW 8,9 C 12,1 C 0,0 km/h
07.05.2013 01:00 11,9 C 79 % 1014,8 hPa 0,0 l/m 0,0 km/h S-SW 8,4 C 11,9 C 0,0 km/h
07.05.2013 02:00 12,2 C 77 % 1014,4 hPa 0,0 l/m 0,0 km/h S-SW 8,3 C 12,2 C 0,0 km/h
07.05.2013 03:00 12,1 C 76 % 1014,4 hPa 0,0 l/m 0,0 km/h S 8,0 C 12,1 C 0,0 km/h
07.05.2013 04:00 12,2 C 75 % 1013,7 hPa 0,0 l/m 0,0 km/h S-SW 7,9 C 12,2 C 0,0 km/h
07.05.2013 05:00 11,5 C 76 % 1013,7 hPa 0,0 l/m 0,0 km/h SO 7,4 C 11,5 C 0,0 km/h
07.05.2013 06:00 11,1 C 75 % 1013,7 hPa 0,0 l/m 0,0 km/h S 6,8 C 11,1 C 0,0 km/h
07.05.2013 07:00 12,1 C 72 % 1013,9 hPa 0,0 l/m 0,0 km/h S-SW 7,2 C 12,1 C 0,0 km/h
07.05.2013 08:00 13,5 C 72 % 1014,0 hPa 0,0 l/m 0,0 km/h N-NO 8,6 C 13,5 C 0,0 km/h
07.05.2013 09:00 19,3 C 77 % 1014,0 hPa 0,5 l/m 0,0 km/h N 15,2 C 19,3 C 0,0 km/h
07.05.2013 10:00 20,5 C 66 % 1013,9 hPa 0,0 l/m 0,0 km/h N 13,9 C 20,5 C 0,0 km/h
07.05.2013 11:00 20,2 C 64 % 1013,6 hPa 0,0 l/m 6,5 km/h N 13,2 C 20,2 C 3,6 km/h
07.05.2013 12:00 22,3 C 61 % 1013,4 hPa 0,0 l/m 15,6 km/h N-NO 14,4 C 19,9 C 8,6 km/h
07.05.2013 13:00 22,6 C 57 % 1013,0 hPa 0,0 l/m 12,3 km/h W-NW 13,6 C 21,0 C 6,8 km/h
07.05.2013 14:00 23,6 C 48 % 1012,7 hPa 0,0 l/m 5,8 km/h N-NO 11,9 C 23,6 C 3,2 km/h
07.05.2013 15:00 24,2 C 46 % 1012,4 hPa 0,0 l/m 3,9 km/h N-NW 11,8 C 24,2 C 2,2 km/h
07.05.2013 16:00 21,6 C 44 % 1012,3 hPa 0,0 l/m 20,1 km/h W-NW 8,8 C 18,3 C 11,2 km/h
07.05.2013 17:00 20,6 C 48 % 1012,0 hPa 0,0 l/m 17,5 km/h NW 9,2 C 17,4 C 9,7 km/h
07.05.2013 18:00 25,2 C 39 % 1011,7 hPa 0,0 l/m 8,4 km/h NW 10,2 C 24,7 C 4,7 km/h
07.05.2013 19:00 23,8 C 42 % 1011,7 hPa 0,0 l/m 3,2 km/h W 10,1 C 23,8 C 1,8 km/h
07.05.2013 20:00 17,9 C 51 % 1012,0 hPa 0,0 l/m 0,0 km/h O-SO 7,6 C 17,9 C 0,0 km/h
07.05.2013 21:00 14,3 C 63 % 1012,4 hPa 0,0 l/m 0,0 km/h S-SO 7,4 C 14,3 C 0,0 km/h
07.05.2013 22:00 12,2 C 75 % 1013,0 hPa 0,0 l/m 0,0 km/h S 7,9 C 12,2 C 0,0 km/h
07.05.2013 23:00 10,2 C 80 % 1012,8 hPa 0,0 l/m 0,0 km/h SO 6,9 C 10,2 C 0,0 km/h
08.05.2013 00:00 9,1 C 82 % 1013,0 hPa 0,0 l/m 0,0 km/h SO 6,2 C 9,1 C 0,0 km/h
08.05.2013 01:00 9,6 C 83 % 1012,8 hPa 0,0 l/m 0,0 km/h O-NO 6,9 C 9,6 C 0,0 km/h
08.05.2013 02:00 9,0 C 84 % 1012,7 hPa 0,0 l/m 0,0 km/h S-SW 6,4 C 9,0 C 0,0 km/h
08.05.2013 03:00 8,5 C 84 % 1012,5 hPa 0,0 l/m 3,2 km/h S-SW 6,0 C 8,5 C 1,8 km/h
08.05.2013 04:00 8,9 C 83 % 1012,4 hPa 0,0 l/m 0,0 km/h SO 6,2 C 8,9 C 0,0 km/h
08.05.2013 05:00 7,6 C 84 % 1012,2 hPa 0,0 l/m 0,0 km/h O-SO 5,1 C 7,6 C 0,0 km/h
08.05.2013 06:00 7,2 C 83 % 1012,3 hPa 0,0 l/m 0,0 km/h SW 4,5 C 7,2 C 0,0 km/h
08.05.2013 07:00 8,6 C 82 % 1012,8 hPa 0,0 l/m 0,0 km/h O-SO 5,7 C 8,6 C 0,0 km/h
08.05.2013 08:00 18,1 C 72 % 1012,8 hPa 0,0 l/m 0,0 km/h N-NO 13,0 C 18,1 C 0,0 km/h
08.05.2013 09:00 23,5 C 53 % 1012,5 hPa 0,0 l/m 0,0 km/h N 13,4 C 23,5 C 0,0 km/h
08.05.2013 10:00 25,4 C 46 % 1012,1 hPa 0,0 l/m 3,2 km/h W-NW 12,9 C 25,4 C 1,8 km/h
08.05.2013 11:00 24,8 C 46 % 1012,2 hPa 0,0 l/m 6,5 km/h N 12,4 C 24,8 C 3,6 km/h
08.05.2013 12:00 24,5 C 47 % 1012,0 hPa 0,0 l/m 0,0 km/h N-NO 12,4 C 24,5 C 0,0 km/h
08.05.2013 13:00 25,5 C 43 % 1011,5 hPa 0,0 l/m 10,4 km/h N-NO 12,0 C 24,6 C 5,8 km/h
08.05.2013 14:00 25,8 C 38 % 1011,1 hPa 0,0 l/m 2,6 km/h N 10,4 C 25,8 C 1,4 km/h
08.05.2013 15:00 29,2 C 32 % 1010,6 hPa 0,0 l/m 11,7 km/h N 10,8 C 28,6 C 6,5 km/h
08.05.2013 16:00 28,6 C 33 % 1010,0 hPa 0,0 l/m 15,6 km/h N 10,7 C 27,6 C 8,6 km/h
08.05.2013 17:00 27,3 C 30 % 1009,6 hPa 0,0 l/m 1,9 km/h N 8,2 C 27,3 C 1,1 km/h
08.05.2013 18:00 23,4 C 40 % 1009,7 hPa 0,0 l/m 0,0 km/h SW 9,0 C 23,4 C 0,0 km/h
08.05.2013 19:00 22,1 C 48 % 1009,8 hPa 0,0 l/m 0,0 km/h SW 10,6 C 22,1 C 0,0 km/h
08.05.2013 20:00 19,9 C 57 % 1009,9 hPa 0,0 l/m 0,0 km/h W 11,1 C 19,9 C 0,0 km/h
08.05.2013 21:00 18,4 C 59 % 1010,8 hPa 0,0 l/m 5,2 km/h SW 10,2 C 18,4 C 2,9 km/h
08.05.2013 22:00 17,0 C 66 % 1012,2 hPa 0,0 l/m 1,3 km/h SO 10,6 C 17,0 C 0,7 km/h
08.05.2013 23:00 15,3 C 77 % 1013,1 hPa 0,5 l/m 0,0 km/h SW 11,3 C 15,3 C 0,0 km/h
09.05.2013 00:00 14,5 C 82 % 1013,5 hPa 0,5 l/m 3,9 km/h O-SO 11,5 C 14,5 C 2,2 km/h
09.05.2013 01:00 13,9 C 82 % 1013,0 hPa 0,5 l/m 0,0 km/h S-SW 10,9 C 13,9 C 0,0 km/h
09.05.2013 02:00 13,6 C 82 % 1012,9 hPa 0,0 l/m 0,0 km/h SO 10,6 C 13,6 C 0,0 km/h
09.05.2013 03:00 13,4 C 81 % 1013,0 hPa 0,0 l/m 0,0 km/h S-SW 10,2 C 13,4 C 0,0 km/h
09.05.2013 04:00 13,3 C 80 % 1013,1 hPa 0,5 l/m 0,0 km/h S-SW 9,9 C 13,3 C 0,0 km/h
09.05.2013 05:00 13,1 C 79 % 1013,1 hPa 0,0 l/m 0,0 km/h SO 9,5 C 13,1 C 0,0 km/h
09.05.2013 06:00 12,3 C 80 % 1013,4 hPa 0,0 l/m 0,0 km/h SW 8,9 C 12,3 C 0,0 km/h
09.05.2013 07:00 13,8 C 76 % 1013,8 hPa 0,0 l/m 0,0 km/h NW 9,6 C 13,8 C 0,0 km/h
09.05.2013 08:00 16,6 C 81 % 1013,9 hPa 0,0 l/m 16,8 km/h W-NW 13,3 C 12,6 C 9,4 km/h
09.05.2013 09:00 18,1 C 77 % 1014,1 hPa 0,0 l/m 15,6 km/h N-NW 14,0 C 14,8 C 8,6 km/h
09.05.2013 10:00 18,8 C 71 % 1014,1 hPa 0,0 l/m 20,1 km/h W-NW 13,4 C 14,6 C 11,2 km/h
09.05.2013 11:00 19,6 C 63 % 1013,9 hPa 0,0 l/m 13,0 km/h W 12,4 C 17,3 C 7,2 km/h
09.05.2013 12:00 20,8 C 61 % 1013,7 hPa 0,0 l/m 2,6 km/h W-NW 13,0 C 20,8 C 1,4 km/h
09.05.2013 13:00 22,3 C 59 % 1013,7 hPa 0,0 l/m 22,0 km/h W 13,9 C 18,9 C 12,2 km/h
09.05.2013 14:00 22,4 C 56 % 1013,2 hPa 0,0 l/m 11,7 km/h W-NW 13,2 C 20,9 C 6,5 km/h
09.05.2013 15:00 23,3 C 51 % 1012,7 hPa 0,0 l/m 23,3 km/h W-SW 12,6 C 20,0 C 13,0 km/h
09.05.2013 16:00 23,9 C 53 % 1011,8 hPa 0,0 l/m 15,6 km/h N-NW 13,7 C 21,9 C 8,6 km/h
09.05.2013 17:00 20,4 C 58 % 1012,0 hPa 0,0 l/m 7,8 km/h N-NW 11,9 C 19,8 C 4,3 km/h
09.05.2013 18:00 19,2 C 62 % 1011,9 hPa 0,0 l/m 7,8 km/h N 11,7 C 18,6 C 4,3 km/h
09.05.2013 19:00 18,3 C 64 % 1011,6 hPa 0,0 l/m 9,7 km/h NW 11,4 C 16,9 C 5,4 km/h
09.05.2013 20:00 17,8 C 65 % 1011,6 hPa 0,0 l/m 20,7 km/h W 11,1 C 13,2 C 11,5 km/h
09.05.2013 21:00 15,6 C 70 % 1011,7 hPa 0,0 l/m 0,0 km/h O-SO 10,1 C 15,6 C 0,0 km/h
09.05.2013 22:00 14,9 C 77 % 1012,0 hPa 0,0 l/m 0,0 km/h O-SO 10,9 C 14,9 C 0,0 km/h
09.05.2013 23:00 13,9 C 80 % 1012,1 hPa 0,0 l/m 0,0 km/h S-SO 10,5 C 13,9 C 0,0 km/h
10.05.2013 00:00 13,4 C 81 % 1012,2 hPa 0,0 l/m 0,0 km/h SO 10,2 C 13,4 C 0,0 km/h
10.05.2013 01:00 13,3 C 82 % 1012,1 hPa 0,0 l/m 0,0 km/h S-SW 10,3 C 13,3 C 0,0 km/h
10.05.2013 02:00 13,0 C 83 % 1012,3 hPa 4,1 l/m 0,0 km/h N-NO 10,2 C 13,0 C 0,0 km/h
10.05.2013 03:00 13,0 C 83 % 1012,7 hPa 2,1 l/m 0,0 km/h O-NO 10,2 C 13,0 C 0,0 km/h
10.05.2013 04:00 12,6 C 80 % 1012,7 hPa 0,5 l/m 0,0 km/h SO 9,2 C 12,6 C 0,0 km/h
10.05.2013 05:00 11,9 C 80 % 1012,6 hPa 5,7 l/m 0,0 km/h O-SO 8,6 C 11,9 C 0,0 km/h
10.05.2013 06:00 11,8 C 80 % 1013,0 hPa 0,5 l/m 0,0 km/h O-SO 8,5 C 11,8 C 0,0 km/h
10.05.2013 07:00 12,1 C 78 % 1013,4 hPa 1,0 l/m 0,0 km/h NO 8,4 C 12,1 C 0,0 km/h
10.05.2013 08:00 11,9 C 79 % 1014,1 hPa 1,6 l/m 0,0 km/h N-NW 8,4 C 11,9 C 0,0 km/h
10.05.2013 09:00 12,1 C 76 % 1014,6 hPa 4,1 l/m 0,0 km/h N-NO 8,0 C 12,1 C 0,0 km/h
10.05.2013 10:00 11,4 C 78 % 1015,1 hPa 3,6 l/m 0,0 km/h O-SO 7,7 C 11,4 C 0,0 km/h
10.05.2013 11:00 14,4 C 80 % 1015,6 hPa 0,0 l/m 1,9 km/h N 11,0 C 14,4 C 1,1 km/h
10.05.2013 12:00 15,2 C 71 % 1015,9 hPa 0,0 l/m 1,3 km/h SW 10,0 C 15,2 C 0,7 km/h
10.05.2013 13:00 16,5 C 69 % 1016,0 hPa 0,0 l/m 10,4 km/h W-SW 10,8 C 14,6 C 5,8 km/h
10.05.2013 14:00 19,1 C 64 % 1015,8 hPa 0,0 l/m 14,9 km/h SO 12,1 C 16,2 C 8,3 km/h
10.05.2013 15:00 19,8 C 55 % 1015,3 hPa 0,0 l/m 0,0 km/h N 10,5 C 19,8 C 0,0 km/h
10.05.2013 16:00 23,8 C 45 % 1015,3 hPa 0,0 l/m 3,2 km/h O-NO 11,1 C 23,8 C 1,8 km/h
10.05.2013 17:00 16,9 C 58 % 1015,1 hPa 0,0 l/m 0,0 km/h N-NO 8,6 C 16,9 C 0,0 km/h
10.05.2013 18:00 16,9 C 56 % 1015,3 hPa 0,0 l/m 1,3 km/h SO 8,1 C 16,9 C 0,7 km/h
10.05.2013 19:00 15,8 C 58 % 1015,6 hPa 0,0 l/m 0,0 km/h NO 7,6 C 15,8 C 0,0 km/h
10.05.2013 20:00 13,8 C 64 % 1016,2 hPa 0,0 l/m 0,0 km/h O 7,1 C 13,8 C 0,0 km/h
10.05.2013 21:00 12,8 C 68 % 1016,9 hPa 0,0 l/m 0,0 km/h SO 7,0 C 12,8 C 0,0 km/h
10.05.2013 22:00 11,9 C 74 % 1017,2 hPa 0,0 l/m 0,0 km/h S-SO 7,4 C 11,9 C 0,0 km/h
10.05.2013 23:00 11,3 C 80 % 1017,3 hPa 0,0 l/m 0,0 km/h O-SO 8,0 C 11,3 C 0,0 km/h
11.05.2013 00:00 10,8 C 81 % 1017,1 hPa 0,0 l/m 0,0 km/h O-SO 7,7 C 10,8 C 0,0 km/h
11.05.2013 01:00 10,4 C 82 % 1016,9 hPa 0,0 l/m 0,0 km/h S-SO 7,5 C 10,4 C 0,0 km/h
11.05.2013 02:00 10,1 C 83 % 1016,3 hPa 0,0 l/m 0,0 km/h S-SO 7,3 C 10,1 C 0,0 km/h
11.05.2013 03:00 10,1 C 83 % 1016,0 hPa 0,0 l/m 0,0 km/h S 7,3 C 10,1 C 0,0 km/h
11.05.2013 04:00 10,1 C 83 % 1015,6 hPa 0,0 l/m 0,0 km/h S-SO 7,3 C 10,1 C 0,0 km/h
11.05.2013 05:00 9,9 C 83 % 1015,1 hPa 0,0 l/m 0,0 km/h S 7,2 C 9,9 C 0,0 km/h
11.05.2013 06:00 9,8 C 83 % 1015,1 hPa 0,0 l/m 0,0 km/h S-SW 7,1 C 9,8 C 0,0 km/h
11.05.2013 07:00 10,6 C 82 % 1015,5 hPa 0,0 l/m 0,0 km/h W 7,7 C 10,6 C 0,0 km/h
11.05.2013 08:00 12,1 C 83 % 1015,5 hPa 0,0 l/m 0,0 km/h N-NW 9,3 C 12,1 C 0,0 km/h
11.05.2013 09:00 13,9 C 80 % 1015,9 hPa 0,0 l/m 0,0 km/h N-NW 10,5 C 13,9 C 0,0 km/h
11.05.2013 10:00 16,6 C 71 % 1015,5 hPa 0,0 l/m 3,2 km/h W 11,3 C 16,6 C 1,8 km/h
11.05.2013 11:00 17,1 C 66 % 1015,3 hPa 0,0 l/m 0,0 km/h N 10,7 C 17,1 C 0,0 km/h
11.05.2013 12:00 18,2 C 60 % 1015,1 hPa 0,0 l/m 9,7 km/h O-NO 10,3 C 16,8 C 5,4 km/h
11.05.2013 13:00 19,1 C 58 % 1014,6 hPa 0,0 l/m 5,2 km/h N-NO 10,6 C 19,1 C 2,9 km/h
11.05.2013 14:00 15,8 C 61 % 1014,6 hPa 0,0 l/m 2,6 km/h N-NW 8,3 C 15,8 C 1,4 km/h
11.05.2013 15:00 17,6 C 57 % 1014,4 hPa 0,0 l/m 4,5 km/h N 9,0 C 17,6 C 2,5 km/h
11.05.2013 16:00 20,8 C 50 % 1014,1 hPa 0,0 l/m 0,0 km/h SO 10,0 C 20,8 C 0,0 km/h
11.05.2013 17:00 12,3 C 78 % 1014,8 hPa 4,1 l/m 0,0 km/h S-SO 8,6 C 12,3 C 0,0 km/h
11.05.2013 18:00 19,6 C 57 % 1014,3 hPa 0,0 l/m 0,0 km/h NW 10,8 C 19,6 C 0,0 km/h
11.05.2013 19:00 15,0 C 65 % 1014,1 hPa 0,0 l/m 20,1 km/h W-SW 8,5 C 9,7 C 11,2 km/h
11.05.2013 20:00 12,4 C 73 % 1014,6 hPa 0,0 l/m 7,1 km/h O-SO 7,7 C 11,9 C 4,0 km/h
11.05.2013 21:00 10,1 C 81 % 1015,4 hPa 0,0 l/m 0,0 km/h SO 7,0 C 10,1 C 0,0 km/h
11.05.2013 22:00 8,7 C 83 % 1015,6 hPa 0,0 l/m 1,3 km/h O-SO 6,0 C 8,7 C 0,7 km/h
11.05.2013 23:00 10,4 C 83 % 1016,0 hPa 0,0 l/m 0,0 km/h S 7,6 C 10,4 C 0,0 km/h
12.05.2013 00:00 9,8 C 83 % 1015,8 hPa 0,0 l/m 0,0 km/h SO 7,1 C 9,8 C 0,0 km/h
12.05.2013 01:00 9,5 C 82 % 1015,2 hPa 0,0 l/m 0,0 km/h O-SO 6,6 C 9,5 C 0,0 km/h
12.05.2013 02:00 9,5 C 82 % 1014,7 hPa 0,0 l/m 0,0 km/h W 6,6 C 9,5 C 0,0 km/h
12.05.2013 03:00 11,2 C 82 % 1014,1 hPa 0,0 l/m 9,1 km/h W-NW 8,2 C 9,4 C 5,0 km/h
12.05.2013 04:00 11,0 C 80 % 1013,9 hPa 0,0 l/m 7,1 km/h NW 7,7 C 10,5 C 4,0 km/h
12.05.2013 05:00 11,3 C 79 % 1013,3 hPa 0,0 l/m 31,1 km/h N-NW 7,8 C 2,3 C 17,3 km/h
12.05.2013 06:00 10,9 C 81 % 1013,4 hPa 0,0 l/m 35,0 km/h W-NW 7,8 C 1,0 C 19,4 km/h
12.05.2013 07:00 10,4 C 83 % 1013,7 hPa 0,0 l/m 0,0 km/h N-NW 7,6 C 10,4 C 0,0 km/h
12.05.2013 08:00 10,4 C 82 % 1013,9 hPa 0,0 l/m 22,0 km/h N-NO 7,5 C 3,2 C 12,2 km/h
12.05.2013 09:00 9,6 C 80 % 1015,1 hPa 0,5 l/m 2,6 km/h SO 6,3 C 9,6 C 1,4 km/h
12.05.2013 10:00 9,5 C 84 % 1015,7 hPa 3,6 l/m 0,0 km/h W 6,9 C 9,5 C 0,0 km/h
12.05.2013 11:00 10,1 C 83 % 1016,3 hPa 1,0 l/m 0,0 km/h W 7,3 C 10,1 C 0,0 km/h
12.05.2013 12:00 11,1 C 79 % 1016,6 hPa 0,5 l/m 0,0 km/h NW 7,6 C 11,1 C 0,0 km/h
12.05.2013 13:00 12,9 C 72 % 1016,4 hPa 0,0 l/m 20,1 km/h N-NO 8,0 C 7,0 C 11,2 km/h
12.05.2013 14:00 9,9 C 79 % 1017,0 hPa 0,0 l/m 5,2 km/h O 6,4 C 9,9 C 2,9 km/h
12.05.2013 15:00 17,5 C 60 % 1016,9 hPa 0,5 l/m 5,2 km/h NO 9,6 C 17,5 C 2,9 km/h
12.05.2013 16:00 12,9 C 62 % 1017,3 hPa 0,0 l/m 0,0 km/h NW 5,8 C 12,9 C 0,0 km/h
12.05.2013 17:00 14,4 C 57 % 1016,9 hPa 0,0 l/m 18,1 km/h N-NO 6,0 C 9,5 C 10,1 km/h
12.05.2013 18:00 20,6 C 43 % 1017,1 hPa 0,0 l/m 2,6 km/h N-NW 7,6 C 20,6 C 1,4 km/h
12.05.2013 19:00 15,8 C 55 % 1017,6 hPa 0,0 l/m 8,4 km/h N-NO 6,8 C 14,7 C 4,7 km/h
12.05.2013 20:00 11,8 C 67 % 1018,0 hPa 0,0 l/m 0,0 km/h S-SW 5,9 C 11,8 C 0,0 km/h
12.05.2013 21:00 9,5 C 75 % 1018,5 hPa 0,0 l/m 0,0 km/h S-SO 5,3 C 9,5 C 0,0 km/h
12.05.2013 22:00 8,7 C 80 % 1018,8 hPa 0,0 l/m 0,0 km/h SO 5,4 C 8,7 C 0,0 km/h
12.05.2013 23:00 7,9 C 82 % 1019,2 hPa 0,0 l/m 0,0 km/h S-SO 5,0 C 7,9 C 0,0 km/h
Min-Datum _ 08.05.13 08.05.13 08.05.13 - 06.05.13 - 08.05.13 12.05.13 06.05.13
_ Min-Zeit 06:19 17:19 17:19 - 02:19 - 06:19 06:19 02:19
Minimum _ 7,2 C 30 % 1009,6 hPa - 0,0 km/h - 4,5 C 1,0 C 0,0 km/h
Max-Datum _ 08.05.13 06.05.13 12.05.13 10.05.13 12.05.13 - 07.05.13 08.05.13 12.05.13
_ Max-Zeit 15:19 03:19 23:19 05:19 06:19 - 09:19 15:19 06:19
Maximum _ 29,2 C 84 % 1019,2 hPa 5,7 l/m 35,0 km/h
W-NW
- 15,2 C 28,6 C 19,4 km/h
W-NW
Durchschnitt _ 15,3 C 70 % 1014,1 hPa #38,9 l/m 4,1 km/h S-SW 9,4 C 14,6 C 2,3 km/h
www.sexauwetter.de